sensor_id;sensor_type;location;lat;lon;timestamp;pressure;altitude;pressure_sealevel;temperature;humidity
68489;BME280;55481;48.764;8.936;2022-09-16T00:02:43;96470;;;13.1;80
68489;BME280;55481;48.764;8.936;2022-09-16T00:05:13;96460;;;13.1;79.5
68489;BME280;55481;48.764;8.936;2022-09-16T00:07:43;96460;;;13.2;79.5
68489;BME280;55481;48.764;8.936;2022-09-16T00:12:38;96460;;;13.1;79.5
68489;BME280;55481;48.764;8.936;2022-09-16T00:15:08;96460;;;13.3;79.5
68489;BME280;55481;48.764;8.936;2022-09-16T00:17:39;96450;;;13.4;79
68489;BME280;55481;48.764;8.936;2022-09-16T00:20:16;96450;;;13.3;79
68489;BME280;55481;48.764;8.936;2022-09-16T00:22:47;96450;;;13;80
68489;BME280;55481;48.764;8.936;2022-09-16T00:28:02;96460;;;12.8;80.5
68489;BME280;55481;48.764;8.936;2022-09-16T00:30:19;96460;;;12.9;80.5
68489;BME280;55481;48.764;8.936;2022-09-16T00:35:14;96460;;;12.9;80
68489;BME280;55481;48.764;8.936;2022-09-16T00:37:44;96460;;;12.8;80.5
68489;BME280;55481;48.764;8.936;2022-09-16T00:40:15;96460;;;12.8;80.5
68489;BME280;55481;48.764;8.936;2022-09-16T00:42:46;96460;;;13;80
68489;BME280;55481;48.764;8.936;2022-09-16T00:50:14;96460;;;12.8;80.5
68489;BME280;55481;48.764;8.936;2022-09-16T00:52:43;96460;;;12.9;80.5
68489;BME280;55481;48.764;8.936;2022-09-16T00:55:14;96460;;;12.9;80.5
68489;BME280;55481;48.764;8.936;2022-09-16T00:57:45;96470;;;13;80
68489;BME280;55481;48.764;8.936;2022-09-16T01:00:29;96470;;;12.9;80
68489;BME280;55481;48.764;8.936;2022-09-16T01:02:46;96460;;;12.9;80
68489;BME280;55481;48.764;8.936;2022-09-16T01:10:24;96470;;;13;80
68489;BME280;55481;48.764;8.936;2022-09-16T01:12:58;96470;;;12.9;80.5
68489;BME280;55481;48.764;8.936;2022-09-16T01:15:36;96480;;;12.9;80.5
68489;BME280;55481;48.764;8.936;2022-09-16T01:18:13;96470;;;13;80
68489;BME280;55481;48.764;8.936;2022-09-16T01:20:40;96470;;;13;80
68489;BME280;55481;48.764;8.936;2022-09-16T01:23:12;96460;;;12.9;80
68489;BME280;55481;48.764;8.936;2022-09-16T01:28:06;96460;;;12.8;80.5
68489;BME280;55481;48.764;8.936;2022-09-16T01:30:33;96460;;;12.8;80
68489;BME280;55481;48.764;8.936;2022-09-16T01:33:35;96460;;;12.8;80
68489;BME280;55481;48.764;8.936;2022-09-16T01:35:38;96450;;;12.7;80
68489;BME280;55481;48.764;8.936;2022-09-16T01:38:08;96450;;;12.7;80.5
68489;BME280;55481;48.764;8.936;2022-09-16T01:40:44;96450;;;12.7;80.5
68489;BME280;55481;48.764;8.936;2022-09-16T01:43:21;96460;;;12.7;80.5
68489;BME280;55481;48.764;8.936;2022-09-16T01:45:38;96460;;;12.7;80.5
68489;BME280;55481;48.764;8.936;2022-09-16T01:48:10;96460;;;12.7;80.5
68489;BME280;55481;48.764;8.936;2022-09-16T01:50:50;96470;;;12.8;80.5
68489;BME280;55481;48.764;8.936;2022-09-16T01:55:42;96470;;;12.7;80.5
68489;BME280;55481;48.764;8.936;2022-09-16T01:58:14;96470;;;12.6;81
68489;BME280;55481;48.764;8.936;2022-09-16T02:00:41;96460;;;12.7;80.5
68489;BME280;55481;48.764;8.936;2022-09-16T02:03:14;96460;;;12.8;80.5
68489;BME280;55481;48.764;8.936;2022-09-16T02:05:52;96460;;;12.7;80.5
68489;BME280;55481;48.764;8.936;2022-09-16T02:10:47;96460;;;12.9;80.5
68489;BME280;55481;48.764;8.936;2022-09-16T02:13:18;96460;;;13;80
68489;BME280;55481;48.764;8.936;2022-09-16T02:15:48;96460;;;12.9;80
68489;BME280;55481;48.764;8.936;2022-09-16T02:18:27;96460;;;13;80.5
68489;BME280;55481;48.764;8.936;2022-09-16T02:25:57;96450;;;13;80
68489;BME280;55481;48.764;8.936;2022-09-16T02:30:59;96450;;;13;80
68489;BME280;55481;48.764;8.936;2022-09-16T02:33:22;96450;;;13.1;80
68489;BME280;55481;48.764;8.936;2022-09-16T02:35:53;96450;;;13.1;80
68489;BME280;55481;48.764;8.936;2022-09-16T02:38:25;96450;;;13.1;80
68489;BME280;55481;48.764;8.936;2022-09-16T02:45:52;96460;;;13.1;80
68489;BME280;55481;48.764;8.936;2022-09-16T02:48:23;96460;;;13;80.5
68489;BME280;55481;48.764;8.936;2022-09-16T02:50:52;96460;;;13.1;80.5
68489;BME280;55481;48.764;8.936;2022-09-16T02:53:25;96460;;;13.1;80.5
68489;BME280;55481;48.764;8.936;2022-09-16T02:55:53;96450;;;13.2;80
68489;BME280;55481;48.764;8.936;2022-09-16T02:58:23;96450;;;13.1;80
68489;BME280;55481;48.764;8.936;2022-09-16T03:00:54;96450;;;13;80.5
68489;BME280;55481;48.764;8.936;2022-09-16T03:03:24;96450;;;13;80.5
68489;BME280;55481;48.764;8.936;2022-09-16T03:05:59;96450;;;13;80.5
68489;BME280;55481;48.764;8.936;2022-09-16T03:08:26;96440;;;12.9;80.5
68489;BME280;55481;48.764;8.936;2022-09-16T03:13:29;96440;;;12.9;81
68489;BME280;55481;48.764;8.936;2022-09-16T03:16:07;96440;;;12.9;80.5
68489;BME280;55481;48.764;8.936;2022-09-16T03:18:51;96440;;;13;80.5
68489;BME280;55481;48.764;8.936;2022-09-16T03:28:56;96440;;;12.8;80.5
68489;BME280;55481;48.764;8.936;2022-09-16T03:31:17;96430;;;12.8;81
68489;BME280;55481;48.764;8.936;2022-09-16T03:36:11;96440;;;13;80
68489;BME280;55481;48.764;8.936;2022-09-16T03:38:41;96430;;;13;80
68489;BME280;55481;48.764;8.936;2022-09-16T03:41:12;96430;;;13;80.5
68489;BME280;55481;48.764;8.936;2022-09-16T03:51:34;96430;;;13.1;80
68489;BME280;55481;48.764;8.936;2022-09-16T03:53:53;96430;;;13;80
68489;BME280;55481;48.764;8.936;2022-09-16T03:58:46;96430;;;13;80.5
68489;BME280;55481;48.764;8.936;2022-09-16T04:01:16;96430;;;12.9;80.5
68489;BME280;55481;48.764;8.936;2022-09-16T04:03:47;96430;;;12.9;80.5
68489;BME280;55481;48.764;8.936;2022-09-16T04:06:18;96420;;;12.9;80.5
68489;BME280;55481;48.764;8.936;2022-09-16T04:08:48;96420;;;12.9;80.5
68489;BME280;55481;48.764;8.936;2022-09-16T04:11:26;96420;;;13;80.5
68489;BME280;55481;48.764;8.936;2022-09-16T04:13:57;96410;;;13;80.5
68489;BME280;55481;48.764;8.936;2022-09-16T04:16:33;96410;;;12.9;80.5
68489;BME280;55481;48.764;8.936;2022-09-16T04:21:21;96410;;;13;80.5
68489;BME280;55481;48.764;8.936;2022-09-16T04:23:52;96410;;;12.9;80.5
68489;BME280;55481;48.764;8.936;2022-09-16T04:26:23;96400;;;12.9;80.5
68489;BME280;55481;48.764;8.936;2022-09-16T04:31:21;96400;;;13.1;80
68489;BME280;55481;48.764;8.936;2022-09-16T04:33:48;96400;;;13.1;80
68489;BME280;55481;48.764;8.936;2022-09-16T04:41:21;96390;;;13;80.5
68489;BME280;55481;48.764;8.936;2022-09-16T04:43:52;96390;;;12.9;80.5
68489;BME280;55481;48.764;8.936;2022-09-16T04:46:23;96400;;;13;80.5
68489;BME280;55481;48.764;8.936;2022-09-16T04:51:30;96390;;;13.1;80
68489;BME280;55481;48.764;8.936;2022-09-16T04:54:01;96400;;;13.1;80
68489;BME280;55481;48.764;8.936;2022-09-16T04:56:32;96400;;;13;80.5
68489;BME280;55481;48.764;8.936;2022-09-16T04:59:03;96410;;;13;80
68489;BME280;55481;48.764;8.936;2022-09-16T05:01:35;96410;;;13;80
68489;BME280;55481;48.764;8.936;2022-09-16T05:03:58;96410;;;12.8;81
68489;BME280;55481;48.764;8.936;2022-09-16T05:08:59;96420;;;12.8;81
68489;BME280;55481;48.764;8.936;2022-09-16T05:16:32;96410;;;13.1;80
68489;BME280;55481;48.764;8.936;2022-09-16T05:19:03;96410;;;13.1;80
68489;BME280;55481;48.764;8.936;2022-09-16T05:21:34;96410;;;12.9;80.5
68489;BME280;55481;48.764;8.936;2022-09-16T05:24:06;96410;;;12.9;80.5
68489;BME280;55481;48.764;8.936;2022-09-16T05:26:41;96410;;;12.9;80.5
68489;BME280;55481;48.764;8.936;2022-09-16T05:29:13;96410;;;12.9;80.5
68489;BME280;55481;48.764;8.936;2022-09-16T05:31:43;96410;;;13;80.5
68489;BME280;55481;48.764;8.936;2022-09-16T05:34:21;96410;;;12.9;80.5
68489;BME280;55481;48.764;8.936;2022-09-16T05:41:54;96420;;;12.9;80.5
68489;BME280;55481;48.764;8.936;2022-09-16T05:44:23;96420;;;12.9;80.5
68489;BME280;55481;48.764;8.936;2022-09-16T05:49:23;96410;;;12.8;80
68489;BME280;55481;48.764;8.936;2022-09-16T05:51:48;96410;;;12.7;80
68489;BME280;55481;48.764;8.936;2022-09-16T05:54:18;96420;;;12.6;80.5
68489;BME280;55481;48.764;8.936;2022-09-16T05:56:49;96410;;;12.6;80.5
68489;BME280;55481;48.764;8.936;2022-09-16T05:59:20;96420;;;12.6;80
68489;BME280;55481;48.764;8.936;2022-09-16T06:02:00;96420;;;12.5;80
68489;BME280;55481;48.764;8.936;2022-09-16T06:04:34;96430;;;12.4;80.5
68489;BME280;55481;48.764;8.936;2022-09-16T06:09:22;96420;;;12.5;80
68489;BME280;55481;48.764;8.936;2022-09-16T06:11:53;96430;;;12.6;80
68489;BME280;55481;48.764;8.936;2022-09-16T06:16:48;96430;;;12.6;80
68489;BME280;55481;48.764;8.936;2022-09-16T06:19:18;96430;;;12.7;80
68489;BME280;55481;48.764;8.936;2022-09-16T06:21:49;96430;;;12.6;80
68489;BME280;55481;48.764;8.936;2022-09-16T06:37:06;96440;;;12.7;80
68489;BME280;55481;48.764;8.936;2022-09-16T06:39:37;96440;;;12.7;80
68489;BME280;55481;48.764;8.936;2022-09-16T06:42:06;96430;;;12.6;80
68489;BME280;55481;48.764;8.936;2022-09-16T06:47:00;96440;;;12.6;80
68489;BME280;55481;48.764;8.936;2022-09-16T06:49:31;96440;;;12.5;80
68489;BME280;55481;48.764;8.936;2022-09-16T06:52:02;96440;;;12.3;80
68489;BME280;55481;48.764;8.936;2022-09-16T06:54:35;96440;;;12.2;80.5
68489;BME280;55481;48.764;8.936;2022-09-16T07:02:25;96440;;;12.2;80.5
68489;BME280;55481;48.764;8.936;2022-09-16T07:12:28;96460;;;12.1;80.5
68489;BME280;55481;48.764;8.936;2022-09-16T07:15:00;96450;;;12.2;80.5
68489;BME280;55481;48.764;8.936;2022-09-16T07:17:29;96440;;;12.2;80.5
68489;BME280;55481;48.764;8.936;2022-09-16T07:19:59;96440;;;12.2;80.5
68489;BME280;55481;48.764;8.936;2022-09-16T07:22:30;96440;;;12.3;80
68489;BME280;55481;48.764;8.936;2022-09-16T07:25:01;96440;;;12.3;80
68489;BME280;55481;48.764;8.936;2022-09-16T07:35:03;96450;;;11.9;81
68489;BME280;55481;48.764;8.936;2022-09-16T07:37:42;96450;;;12;80.5
68489;BME280;55481;48.764;8.936;2022-09-16T07:40:12;96450;;;12.1;80.5
68489;BME280;55481;48.764;8.936;2022-09-16T07:44:53;96460;;;12.2;80
68489;BME280;55481;48.764;8.936;2022-09-16T07:47:26;96460;;;12.3;79.5
68489;BME280;55481;48.764;8.936;2022-09-16T07:49:54;96460;;;12.3;80
68489;BME280;55481;48.764;8.936;2022-09-16T07:52:23;96470;;;12.4;79.5
68489;BME280;55481;48.764;8.936;2022-09-16T07:54:56;96470;;;12.4;79.5
68489;BME280;55481;48.764;8.936;2022-09-16T07:59:43;96470;;;12.3;80
68489;BME280;55481;48.764;8.936;2022-09-16T08:02:14;96470;;;12.4;79.5
68489;BME280;55481;48.764;8.936;2022-09-16T08:04:44;96470;;;12.6;79.5
68489;BME280;55481;48.764;8.936;2022-09-16T08:07:15;96470;;;12.7;79.5
68489;BME280;55481;48.764;8.936;2022-09-16T08:09:46;96470;;;12.9;78.5
68489;BME280;55481;48.764;8.936;2022-09-16T08:12:16;96470;;;13;78.5
68489;BME280;55481;48.764;8.936;2022-09-16T08:14:47;96470;;;13;79
68489;BME280;55481;48.764;8.936;2022-09-16T08:22:29;96480;;;13;79
68489;BME280;55481;48.764;8.936;2022-09-16T08:25:10;96480;;;12.9;79
68489;BME280;55481;48.764;8.936;2022-09-16T08:27:39;96490;;;12.6;79.5
68489;BME280;55481;48.764;8.936;2022-09-16T08:30:00;96490;;;12.4;80.5
68489;BME280;55481;48.764;8.936;2022-09-16T08:32:30;96490;;;12.6;80.5
68489;BME280;55481;48.764;8.936;2022-09-16T08:34:48;96490;;;12.5;80.5
68489;BME280;55481;48.764;8.936;2022-09-16T08:37:19;96490;;;12.5;80
68489;BME280;55481;48.764;8.936;2022-09-16T08:39:49;96490;;;12.6;80
68489;BME280;55481;48.764;8.936;2022-09-16T08:42:52;96490;;;12.6;80.5
68489;BME280;55481;48.764;8.936;2022-09-16T08:45:17;96490;;;12.6;80
68489;BME280;55481;48.764;8.936;2022-09-16T08:50:15;96500;;;12.6;80.5
68489;BME280;55481;48.764;8.936;2022-09-16T08:52:34;96500;;;12.7;80.5
68489;BME280;55481;48.764;8.936;2022-09-16T08:55:07;96500;;;12.8;80.5
68489;BME280;55481;48.764;8.936;2022-09-16T08:57:34;96500;;;12.9;80
68489;BME280;55481;48.764;8.936;2022-09-16T08:59:55;96490;;;12.9;80.5
68489;BME280;55481;48.764;8.936;2022-09-16T09:07:29;96500;;;12.8;80.5
68489;BME280;55481;48.764;8.936;2022-09-16T09:10:06;96500;;;12.8;81
68489;BME280;55481;48.764;8.936;2022-09-16T09:12:36;96500;;;12.9;80.5
68489;BME280;55481;48.764;8.936;2022-09-16T09:20:13;96490;;;12.9;80.5
68489;BME280;55481;48.764;8.936;2022-09-16T09:23:21;96490;;;13;80.5
68489;BME280;55481;48.764;8.936;2022-09-16T09:27:48;96490;;;13;80.5
68489;BME280;55481;48.764;8.936;2022-09-16T09:40:34;96490;;;13.8;79
68489;BME280;55481;48.764;8.936;2022-09-16T09:43:04;96480;;;13.4;80
68489;BME280;55481;48.764;8.936;2022-09-16T09:45:25;96480;;;13.4;80
68489;BME280;55481;48.764;8.936;2022-09-16T09:47:54;96480;;;13.3;80.5
68489;BME280;55481;48.764;8.936;2022-09-16T09:55:25;96490;;;13.1;81
68489;BME280;55481;48.764;8.936;2022-09-16T09:58:02;96500;;;13.1;81
68489;BME280;55481;48.764;8.936;2022-09-16T10:00:26;96500;;;13.2;80.5
68489;BME280;55481;48.764;8.936;2022-09-16T10:03:00;96500;;;13.1;80.5
68489;BME280;55481;48.764;8.936;2022-09-16T10:07:48;96510;;;13;81
68489;BME280;55481;48.764;8.936;2022-09-16T10:10:18;96500;;;13;81
68489;BME280;55481;48.764;8.936;2022-09-16T10:13:04;96500;;;13.2;80.5
68489;BME280;55481;48.764;8.936;2022-09-16T10:17:35;96500;;;13.2;80.5
68489;BME280;55481;48.764;8.936;2022-09-16T10:20:43;96500;;;13.3;80.5
68489;BME280;55481;48.764;8.936;2022-09-16T10:23:04;96500;;;13.3;80.5
68489;BME280;55481;48.764;8.936;2022-09-16T10:25:30;96490;;;13.4;80
68489;BME280;55481;48.764;8.936;2022-09-16T10:30:19;96490;;;13.6;80
68489;BME280;55481;48.764;8.936;2022-09-16T10:35:50;96480;;;14.6;77.5
68489;BME280;55481;48.764;8.936;2022-09-16T10:43:03;96480;;;14.3;79
68489;BME280;55481;48.764;8.936;2022-09-16T10:45:34;96480;;;14.3;79
68489;BME280;55481;48.764;8.936;2022-09-16T10:48:05;96490;;;14.3;79.5
68489;BME280;55481;48.764;8.936;2022-09-16T10:50:22;96490;;;14.2;79.5
68489;BME280;55481;48.764;8.936;2022-09-16T10:53:02;96500;;;14;80
68489;BME280;55481;48.764;8.936;2022-09-16T10:55:32;96500;;;13.9;80.5
68489;BME280;55481;48.764;8.936;2022-09-16T10:57:53;96500;;;14;80.5
68489;BME280;55481;48.764;8.936;2022-09-16T11:00:24;96500;;;14;80
68489;BME280;55481;48.764;8.936;2022-09-16T11:05:17;96500;;;14;80
68489;BME280;55481;48.764;8.936;2022-09-16T11:08:10;96510;;;13.8;80.5
68489;BME280;55481;48.764;8.936;2022-09-16T11:15:32;96520;;;13.7;81
68489;BME280;55481;48.764;8.936;2022-09-16T11:22:51;96520;;;13.3;81
68489;BME280;55481;48.764;8.936;2022-09-16T11:27:57;96520;;;13.6;80.5
68489;BME280;55481;48.764;8.936;2022-09-16T11:30:17;96510;;;14.1;79.5
68489;BME280;55481;48.764;8.936;2022-09-16T11:35:22;96510;;;14.4;79.5
68489;BME280;55481;48.764;8.936;2022-09-16T11:37:57;96510;;;14.5;79
68489;BME280;55481;48.764;8.936;2022-09-16T11:41:25;96500;;;14.7;79
68489;BME280;55481;48.764;8.936;2022-09-16T11:42:54;96500;;;14.8;78.5
68489;BME280;55481;48.764;8.936;2022-09-16T11:50:36;96490;;;16.5;76
68489;BME280;55481;48.764;8.936;2022-09-16T11:55:37;96490;;;17.9;73.5
68489;BME280;55481;48.764;8.936;2022-09-16T11:58:30;96500;;;17;76
68489;BME280;55481;48.764;8.936;2022-09-16T12:02:56;96490;;;15.3;80.5
68489;BME280;55481;48.764;8.936;2022-09-16T12:05:22;96490;;;15;82
68489;BME280;55481;48.764;8.936;2022-09-16T12:07:56;96490;;;14.9;81.5
68489;BME280;55481;48.764;8.936;2022-09-16T12:10:25;96490;;;14.4;82.5
68489;BME280;55481;48.764;8.936;2022-09-16T12:12:57;96490;;;14.6;82
68489;BME280;55481;48.764;8.936;2022-09-16T12:15:24;96490;;;14.6;81.5
68489;BME280;55481;48.764;8.936;2022-09-16T12:17:56;96480;;;14.8;81
68489;BME280;55481;48.764;8.936;2022-09-16T12:26:18;96490;;;14.5;81.5
68489;BME280;55481;48.764;8.936;2022-09-16T12:30:41;96480;;;14.5;81
68489;BME280;55481;48.764;8.936;2022-09-16T12:33:10;96480;;;14.4;81
68489;BME280;55481;48.764;8.936;2022-09-16T12:35:39;96480;;;14.4;81
68489;BME280;55481;48.764;8.936;2022-09-16T12:38:11;96480;;;14.5;81
68489;BME280;55481;48.764;8.936;2022-09-16T12:40:42;96480;;;14.5;80.5
68489;BME280;55481;48.764;8.936;2022-09-16T12:46:19;96470;;;14.7;80
68489;BME280;55481;48.764;8.936;2022-09-16T12:48:25;96460;;;16.7;77
68489;BME280;55481;48.764;8.936;2022-09-16T12:51:07;96440;;;19.8;70
68489;BME280;55481;48.764;8.936;2022-09-16T12:53:26;96440;;;21.3;67.5
68489;BME280;55481;48.764;8.936;2022-09-16T12:58:14;96440;;;21.7;69
68489;BME280;55481;48.764;8.936;2022-09-16T13:05:52;96430;;;20.6;75
68489;BME280;55481;48.764;8.936;2022-09-16T13:08:32;96440;;;19.8;77.5
68489;BME280;55481;48.764;8.936;2022-09-16T13:11:04;96430;;;20.5;76.5
68489;BME280;55481;48.764;8.936;2022-09-16T13:13:28;96440;;;19.9;77
68489;BME280;55481;48.764;8.936;2022-09-16T13:15:43;96430;;;21.3;74
68489;BME280;55481;48.764;8.936;2022-09-16T13:18:41;96420;;;20.7;75.5
68489;BME280;55481;48.764;8.936;2022-09-16T13:20:51;96430;;;19;79
68489;BME280;55481;48.764;8.936;2022-09-16T13:25:56;96420;;;21.5;72.5
68489;BME280;55481;48.764;8.936;2022-09-16T13:33:27;96420;;;20.7;75.5
68489;BME280;55481;48.764;8.936;2022-09-16T13:36:30;96430;;;18.8;80.5
68489;BME280;55481;48.764;8.936;2022-09-16T13:38:47;96420;;;19.3;79.5
68489;BME280;55481;48.764;8.936;2022-09-16T13:43:31;96440;;;16.6;82.5
68489;BME280;55481;48.764;8.936;2022-09-16T13:51:05;96440;;;16.6;81.5
68489;BME280;55481;48.764;8.936;2022-09-16T13:53:32;96440;;;16.4;82
68489;BME280;55481;48.764;8.936;2022-09-16T13:56:08;96440;;;15.9;82.5
68489;BME280;55481;48.764;8.936;2022-09-16T13:58:35;96430;;;15.7;82.5
68489;BME280;55481;48.764;8.936;2022-09-16T14:03:30;96420;;;15.8;82
68489;BME280;55481;48.764;8.936;2022-09-16T14:05:56;96430;;;15.7;81.5
68489;BME280;55481;48.764;8.936;2022-09-16T14:12:49;96420;;;16.2;81
68489;BME280;55481;48.764;8.936;2022-09-16T14:15:22;96420;;;16.3;80.5
68489;BME280;55481;48.764;8.936;2022-09-16T14:27:51;96420;;;16.6;78.5
68489;BME280;55481;48.764;8.936;2022-09-16T14:30:21;96400;;;17.8;77
68489;BME280;55481;48.764;8.936;2022-09-16T14:33:21;96390;;;19.4;73
68489;BME280;55481;48.764;8.936;2022-09-16T14:35:35;96390;;;21.2;69
68489;BME280;55481;48.764;8.936;2022-09-16T14:40:30;96400;;;21;70
68489;BME280;55481;48.764;8.936;2022-09-16T14:43:02;96410;;;18.6;77
68489;BME280;55481;48.764;8.936;2022-09-16T14:45:31;96420;;;18.6;76.5
68489;BME280;55481;48.764;8.936;2022-09-16T14:48:05;96420;;;17.6;78
68489;BME280;55481;48.764;8.936;2022-09-16T14:55:29;96420;;;17;79
68489;BME280;55481;48.764;8.936;2022-09-16T14:57:58;96420;;;16.7;79
68489;BME280;55481;48.764;8.936;2022-09-16T15:00:35;96420;;;16.7;79
68489;BME280;55481;48.764;8.936;2022-09-16T15:03:02;96420;;;16.9;79
68489;BME280;55481;48.764;8.936;2022-09-16T15:05:33;96420;;;16.6;78.5
68489;BME280;55481;48.764;8.936;2022-09-16T15:08:18;96420;;;16.2;79.5
68489;BME280;55481;48.764;8.936;2022-09-16T15:10:33;96420;;;16.1;79
68489;BME280;55481;48.764;8.936;2022-09-16T15:13:04;96410;;;15.7;79.5
68489;BME280;55481;48.764;8.936;2022-09-16T15:17:25;96410;;;15.6;80
68489;BME280;55481;48.764;8.936;2022-09-16T15:28:15;96410;;;17.4;74.5
68489;BME280;55481;48.764;8.936;2022-09-16T15:30:47;96410;;;17.4;74
68489;BME280;55481;48.764;8.936;2022-09-16T15:35:39;96410;;;16.7;76
68489;BME280;55481;48.764;8.936;2022-09-16T15:38:11;96410;;;16.6;76.5
68489;BME280;55481;48.764;8.936;2022-09-16T15:48:15;96420;;;15.9;77.5
68489;BME280;55481;48.764;8.936;2022-09-16T15:50:48;96410;;;15.7;77.5
68489;BME280;55481;48.764;8.936;2022-09-16T15:53:18;96410;;;15.6;77.5
68489;BME280;55481;48.764;8.936;2022-09-16T15:56:01;96420;;;15.3;78.5
68489;BME280;55481;48.764;8.936;2022-09-16T15:58:40;96420;;;15.3;78
68489;BME280;55481;48.764;8.936;2022-09-16T16:03:23;96420;;;15.2;78
68489;BME280;55481;48.764;8.936;2022-09-16T16:06:02;96420;;;15.1;78
68489;BME280;55481;48.764;8.936;2022-09-16T16:08:42;96420;;;14.9;78.5
68489;BME280;55481;48.764;8.936;2022-09-16T16:11:05;96410;;;14.9;78.5
68489;BME280;55481;48.764;8.936;2022-09-16T16:13:37;96420;;;14.8;78.5
68489;BME280;55481;48.764;8.936;2022-09-16T16:16:11;96420;;;14.7;78.5
68489;BME280;55481;48.764;8.936;2022-09-16T16:18:48;96420;;;14.5;79
68489;BME280;55481;48.764;8.936;2022-09-16T16:23:28;96420;;;14.3;79
68489;BME280;55481;48.764;8.936;2022-09-16T16:25:59;96420;;;14.3;79
68489;BME280;55481;48.764;8.936;2022-09-16T16:28:30;96420;;;14.2;79
68489;BME280;55481;48.764;8.936;2022-09-16T16:31:05;96420;;;14.2;79
68489;BME280;55481;48.764;8.936;2022-09-16T16:38:26;96430;;;13.9;79
68489;BME280;55481;48.764;8.936;2022-09-16T16:40:57;96420;;;13.9;79
68489;BME280;55481;48.764;8.936;2022-09-16T16:43:30;96430;;;13.8;79
68489;BME280;55481;48.764;8.936;2022-09-16T16:45:58;96420;;;13.8;79
68489;BME280;55481;48.764;8.936;2022-09-16T16:51:07;96440;;;13.7;79
68489;BME280;55481;48.764;8.936;2022-09-16T16:53:37;96430;;;13.6;79
68489;BME280;55481;48.764;8.936;2022-09-16T16:56:09;96440;;;13.6;79
68489;BME280;55481;48.764;8.936;2022-09-16T16:58:38;96440;;;13.5;79
68489;BME280;55481;48.764;8.936;2022-09-16T17:06:04;96440;;;13.5;79
68489;BME280;55481;48.764;8.936;2022-09-16T17:08:35;96440;;;13.5;79
68489;BME280;55481;48.764;8.936;2022-09-16T17:11:14;96440;;;13.5;79
68489;BME280;55481;48.764;8.936;2022-09-16T17:13:37;96450;;;13.4;79
68489;BME280;55481;48.764;8.936;2022-09-16T17:16:07;96450;;;13.4;79
68489;BME280;55481;48.764;8.936;2022-09-16T17:18:39;96460;;;13.4;79
68489;BME280;55481;48.764;8.936;2022-09-16T17:21:10;96470;;;13.4;79
68489;BME280;55481;48.764;8.936;2022-09-16T17:23:40;96490;;;13.4;78
68489;BME280;55481;48.764;8.936;2022-09-16T17:28:54;96510;;;13.1;78
68489;BME280;55481;48.764;8.936;2022-09-16T17:33:52;96500;;;11.3;81.5
68489;BME280;55481;48.764;8.936;2022-09-16T17:38:54;96500;;;11.1;81
68489;BME280;55481;48.764;8.936;2022-09-16T17:41:21;96500;;;11.2;81
68489;BME280;55481;48.764;8.936;2022-09-16T17:43:52;96510;;;11.4;80.5
68489;BME280;55481;48.764;8.936;2022-09-16T17:46:16;96500;;;11.5;80
68489;BME280;55481;48.764;8.936;2022-09-16T17:48:46;96510;;;11.6;79.5
68489;BME280;55481;48.764;8.936;2022-09-16T17:56:20;96510;;;11.6;79
68489;BME280;55481;48.764;8.936;2022-09-16T17:58:50;96510;;;11.7;79
68489;BME280;55481;48.764;8.936;2022-09-16T18:01:22;96500;;;11.6;79
68489;BME280;55481;48.764;8.936;2022-09-16T18:03:51;96510;;;11.5;79.5
68489;BME280;55481;48.764;8.936;2022-09-16T18:06:29;96510;;;11.3;80
68489;BME280;55481;48.764;8.936;2022-09-16T18:08:59;96520;;;11.3;80
68489;BME280;55481;48.764;8.936;2022-09-16T18:11:29;96520;;;11.3;80
68489;BME280;55481;48.764;8.936;2022-09-16T18:13:54;96520;;;11.4;80
68489;BME280;55481;48.764;8.936;2022-09-16T18:26:28;96530;;;11.5;79.5
68489;BME280;55481;48.764;8.936;2022-09-16T18:29:00;96540;;;11.4;79.5
68489;BME280;55481;48.764;8.936;2022-09-16T18:31:30;96540;;;11.3;80
68489;BME280;55481;48.764;8.936;2022-09-16T18:34:14;96540;;;11.2;80
68489;BME280;55481;48.764;8.936;2022-09-16T18:36:44;96540;;;11.3;80
68489;BME280;55481;48.764;8.936;2022-09-16T18:41:38;96550;;;11.3;80
68489;BME280;55481;48.764;8.936;2022-09-16T18:44:17;96560;;;11.2;80
68489;BME280;55481;48.764;8.936;2022-09-16T18:46:46;96560;;;11.1;80
68489;BME280;55481;48.764;8.936;2022-09-16T18:49:04;96560;;;11.2;80
68489;BME280;55481;48.764;8.936;2022-09-16T18:51:36;96560;;;11.3;80
68489;BME280;55481;48.764;8.936;2022-09-16T18:59:11;96560;;;11.1;80.5
68489;BME280;55481;48.764;8.936;2022-09-16T19:01:38;96560;;;11.2;80
68489;BME280;55481;48.764;8.936;2022-09-16T19:04:10;96560;;;11.2;80
68489;BME280;55481;48.764;8.936;2022-09-16T19:06:40;96560;;;11.3;79.5
68489;BME280;55481;48.764;8.936;2022-09-16T19:09:12;96560;;;11.1;80
68489;BME280;55481;48.764;8.936;2022-09-16T19:11:48;96560;;;11;80.5
68489;BME280;55481;48.764;8.936;2022-09-16T19:14:22;96560;;;11;80.5
68489;BME280;55481;48.764;8.936;2022-09-16T19:16:50;96560;;;11;80
68489;BME280;55481;48.764;8.936;2022-09-16T19:19:14;96570;;;10.9;80.5
68489;BME280;55481;48.764;8.936;2022-09-16T19:26:47;96570;;;10.9;80.5
68489;BME280;55481;48.764;8.936;2022-09-16T19:29:17;96570;;;10.9;80.5
68489;BME280;55481;48.764;8.936;2022-09-16T19:31:48;96570;;;10.9;80.5
68489;BME280;55481;48.764;8.936;2022-09-16T19:34:19;96570;;;10.9;80.5
68489;BME280;55481;48.764;8.936;2022-09-16T19:36:56;96580;;;10.9;80.5
68489;BME280;55481;48.764;8.936;2022-09-16T19:39:27;96580;;;10.8;80.5
68489;BME280;55481;48.764;8.936;2022-09-16T19:44:22;96580;;;10.5;80.5
68489;BME280;55481;48.764;8.936;2022-09-16T19:46:53;96580;;;10.5;81
68489;BME280;55481;48.764;8.936;2022-09-16T19:56:56;96580;;;10.1;81.5
68489;BME280;55481;48.764;8.936;2022-09-16T19:59:27;96580;;;10.1;81
68489;BME280;55481;48.764;8.936;2022-09-16T20:01:58;96580;;;10.1;81
68489;BME280;55481;48.764;8.936;2022-09-16T20:04:28;96590;;;10.1;81
68489;BME280;55481;48.764;8.936;2022-09-16T20:07:06;96590;;;10;81
68489;BME280;55481;48.764;8.936;2022-09-16T20:09:37;96590;;;10;81
68489;BME280;55481;48.764;8.936;2022-09-16T20:14:31;96590;;;9.9;81
68489;BME280;55481;48.764;8.936;2022-09-16T20:17:02;96590;;;10;81
68489;BME280;55481;48.764;8.936;2022-09-16T20:24:35;96590;;;9.9;81
68489;BME280;55481;48.764;8.936;2022-09-16T20:27:06;96590;;;9.9;81
68489;BME280;55481;48.764;8.936;2022-09-16T20:29:36;96590;;;9.8;81
68489;BME280;55481;48.764;8.936;2022-09-16T20:34:44;96590;;;9.8;81